Aérodrome :







RETROUVEZ-NOUS SUR...

 
LOGIN :

S'inscrire | Disclaimer

   EN    FR    IT 

 









Légende :    VFR   VFR Marginal   IFR   IFR Intensif   IFR Très Intensif
Visi : 
Plafond : 
>= 8 km
>= 3000ft
5 à 8 km
1000 à 3000 ft
1500m à 5 km
500 à 1000 ft
800 à 1500m
200 à 500 ft
< 800m
< 200 ft
Symboles :   Orages  Brouillard  Fortes neiges  Fortes précipitations  Vent > 20 kt






- Altitude de l'aérodrome : 20 ft
- Code IATA : BOS


KBOS - General Edward Lawrence Logan International

DERNIER METAR :
  • 241654Z 19010KT 10SM FEW250 16/M06 A3001 RMK AO2 SLP161 T01611056

METARs EXPIRÉS :
  • 241554Z 20008KT 10SM FEW250 14/M06 A3003 RMK AO2 SLP168 T01441061
  • 241454Z 21008KT 10SM FEW250 11/M06 A3005 RMK AO2 SLP173 T01111056 58001

TAF KBOS
Valide du 24 à 15h jusqu'au 25 à 18h UTC


241501Z 2415/2518 21009KT P6SM SKC
FM241600 21010G20KT P6SM SKC
FM250700 23004KT P6SM OVC120
FM250900 26004KT P6SM OVC090
FM251300 31003KT P6SM OVC070
FM251500 01004KT P6SM BKN070



MET'MAP, la Météo Aéronautique d'un coup d'oeil ! - Copyright ORBIFLY Décembre 2007 - Disclaimer

ORBIFLY MET'MAP TEAM :

Programmation & Développement : Alexandra Zaïnal
Sur une idée originale de : Baudouin d'Aumeries
Assistance à la programmation : Marc-Olivier Méhu
Soutien technique & logistique : Manuel Goepfert

Contact : metmap@orbifly.com




SOURCES & CREDITS :

   NOAA